createdAt,value
2023-05-10T00:01:00.717Z,18.27
2023-05-10T00:03:27.672Z,17.48
2023-05-10T00:05:54.540Z,16.10
2023-05-10T00:08:21.427Z,17.30
2023-05-10T00:10:48.351Z,17.45
2023-05-10T00:13:15.276Z,15.18
2023-05-10T00:15:42.276Z,15.55
2023-05-10T00:18:09.069Z,16.70
2023-05-10T00:20:39.000Z,15.88
2023-05-10T00:23:05.705Z,17.40
2023-05-10T00:25:32.410Z,18.40
2023-05-10T00:28:02.239Z,18.88
2023-05-10T00:30:29.026Z,17.40
2023-05-10T00:32:56.156Z,20.52
2023-05-10T00:35:23.026Z,17.77
2023-05-10T00:37:49.965Z,18.27
2023-05-10T00:40:17.000Z,18.60
2023-05-10T00:42:44.051Z,20.13
2023-05-10T00:45:10.955Z,19.23
2023-05-10T00:47:37.798Z,17.33
2023-05-10T00:50:06.467Z,18.67
2023-05-10T00:52:33.488Z,17.08
2023-05-10T00:55:01.094Z,19.40
2023-05-10T00:57:31.775Z,18.42
2023-05-10T01:00:00.231Z,20.05
2023-05-10T01:02:27.125Z,21.13
2023-05-10T01:04:53.970Z,20.55
2023-05-10T01:07:20.724Z,18.98
2023-05-10T01:09:47.932Z,19.67
2023-05-10T01:12:16.273Z,20.25
2023-05-10T01:14:43.950Z,20.25
2023-05-10T01:17:15.172Z,19.40
2023-05-10T01:19:42.194Z,20.80
2023-05-10T01:22:23.605Z,22.88
2023-05-10T01:25:19.534Z,21.70
2023-05-10T01:28:24.004Z,21.20
2023-05-10T01:31:43.804Z,20.42
2023-05-10T01:34:23.355Z,21.00
2023-05-10T01:37:03.737Z,22.08
2023-05-10T01:40:12.192Z,21.23
2023-05-10T01:42:54.074Z,22.00
2023-05-10T01:45:34.962Z,20.17
2023-05-10T01:48:10.604Z,22.15
2023-05-10T01:50:42.849Z,20.33
2023-05-10T01:53:13.721Z,21.38
2023-05-10T01:55:53.635Z,20.75
2023-05-10T01:58:28.665Z,21.23
2023-05-10T02:00:56.948Z,20.17
2023-05-10T02:03:27.424Z,21.88
2023-05-10T02:05:58.067Z,22.95
2023-05-10T02:08:26.095Z,21.65
2023-05-10T02:10:57.326Z,21.92
2023-05-10T02:13:27.834Z,22.08
2023-05-10T02:15:57.400Z,22.00
2023-05-10T02:18:27.778Z,22.23
2023-05-10T02:20:57.210Z,24.27
2023-05-10T02:23:26.358Z,22.25
2023-05-10T02:25:57.520Z,23.17
2023-05-10T02:28:27.849Z,23.65
2023-05-10T02:30:56.477Z,24.92
2023-05-10T02:33:24.342Z,24.42
2023-05-10T02:35:53.406Z,24.42
2023-05-10T02:38:24.849Z,25.27
2023-05-10T02:40:53.280Z,25.30
2023-05-10T02:43:24.023Z,25.83
2023-05-10T02:45:50.986Z,24.65
2023-05-10T02:48:18.593Z,27.40
2023-05-10T02:50:49.909Z,27.42
2023-05-10T02:53:24.139Z,24.17
2023-05-10T02:55:58.065Z,25.00
2023-05-10T02:58:24.873Z,27.20
2023-05-10T03:00:51.794Z,26.52
2023-05-10T03:03:18.596Z,25.13
2023-05-10T03:05:45.581Z,29.40
2023-05-10T03:08:12.569Z,26.85
2023-05-10T03:11:09.621Z,26.77
2023-05-10T03:14:03.635Z,26.30
2023-05-10T03:16:58.708Z,27.08
2023-05-10T03:19:38.935Z,26.35
2023-05-10T03:22:14.183Z,26.58
2023-05-10T03:24:44.182Z,25.80
2023-05-10T03:27:13.033Z,26.33
2023-05-10T03:29:40.912Z,25.15
2023-05-10T03:32:07.940Z,27.02
2023-05-10T03:34:34.636Z,25.92
2023-05-10T03:37:01.360Z,26.65
2023-05-10T03:39:28.121Z,28.27
2023-05-10T03:41:54.843Z,28.02
2023-05-10T03:44:21.673Z,28.00
2023-05-10T03:46:48.595Z,26.48
2023-05-10T03:49:15.808Z,26.20
2023-05-10T03:51:42.710Z,25.85
2023-05-10T03:54:11.992Z,25.15
2023-05-10T03:56:38.767Z,27.13
2023-05-10T03:59:08.406Z,26.55
2023-05-10T04:01:36.140Z,28.52
2023-05-10T04:04:02.977Z,28.33
2023-05-10T04:06:29.803Z,27.10
2023-05-10T04:08:56.601Z,26.00
2023-05-10T04:11:23.658Z,24.63
2023-05-10T04:13:50.451Z,24.90
2023-05-10T04:16:17.208Z,25.23
2023-05-10T04:18:44.014Z,23.13
2023-05-10T04:21:16.776Z,23.75
2023-05-10T04:23:45.966Z,22.33
2023-05-10T04:26:13.009Z,21.42
2023-05-10T04:28:39.747Z,22.95
2023-05-10T04:31:09.286Z,21.80
2023-05-10T04:33:37.754Z,22.40
2023-05-10T04:36:06.282Z,24.08
2023-05-10T04:38:33.036Z,22.73
2023-05-10T04:41:11.562Z,23.55
2023-05-10T04:43:40.094Z,23.10
2023-05-10T04:46:08.542Z,24.02
2023-05-10T04:48:35.462Z,22.92
2023-05-10T04:51:02.341Z,22.77
2023-05-10T04:53:29.085Z,25.10
2023-05-10T04:55:55.924Z,23.75
2023-05-10T04:58:22.665Z,23.17
2023-05-10T05:00:49.482Z,24.00
2023-05-10T05:03:16.409Z,24.13
2023-05-10T05:05:44.571Z,25.20
2023-05-10T05:08:11.422Z,26.50
2023-05-10T05:10:38.207Z,24.58
2023-05-10T05:13:04.976Z,26.60
2023-05-10T05:15:31.778Z,24.83
2023-05-10T05:17:58.911Z,25.73
2023-05-10T05:20:25.734Z,23.98
2023-05-10T05:22:52.508Z,24.58
2023-05-10T05:25:19.220Z,23.60
2023-05-10T05:27:46.061Z,24.05
2023-05-10T05:30:13.520Z,24.38
2023-05-10T05:32:40.686Z,23.33
2023-05-10T05:35:08.174Z,23.08
2023-05-10T05:37:34.933Z,24.05
2023-05-10T05:40:03.031Z,22.58
2023-05-10T05:42:29.867Z,22.95
2023-05-10T05:44:56.637Z,24.27
2023-05-10T05:47:23.655Z,23.67
2023-05-10T05:49:50.416Z,21.92
2023-05-10T05:52:17.671Z,21.83
2023-05-10T05:54:44.742Z,20.42
2023-05-10T05:57:11.522Z,20.27
2023-05-10T05:59:42.730Z,19.75
2023-05-10T06:02:10.569Z,18.50
2023-05-10T06:04:41.545Z,17.50
2023-05-10T06:07:09.874Z,17.30
2023-05-10T06:09:36.679Z,16.10
2023-05-10T06:12:03.552Z,15.13
2023-05-10T06:14:33.114Z,14.52
2023-05-10T06:17:03.400Z,14.32
2023-05-10T06:19:30.158Z,13.10
2023-05-10T06:21:56.971Z,11.60
2023-05-10T06:24:26.257Z,11.70
2023-05-10T06:26:52.978Z,10.25
2023-05-10T06:29:19.744Z,10.48
2023-05-10T06:31:47.962Z,10.63
2023-05-10T06:34:14.949Z,10.13
2023-05-10T06:36:42.066Z,10.73
2023-05-10T06:39:09.023Z,10.30
2023-05-10T06:41:37.142Z,10.65
2023-05-10T06:44:05.184Z,10.27
2023-05-10T06:46:32.040Z,10.52
2023-05-10T06:48:58.869Z,10.25
2023-05-10T06:51:25.608Z,8.60
2023-05-10T06:53:52.355Z,9.80
2023-05-10T06:56:19.137Z,9.70
2023-05-10T06:58:47.063Z,9.45
2023-05-10T07:01:15.347Z,8.30
2023-05-10T07:03:42.227Z,8.95
2023-05-10T07:06:15.670Z,10.15
2023-05-10T07:08:45.554Z,9.23
2023-05-10T07:11:12.441Z,8.90
2023-05-10T07:13:42.244Z,9.23
2023-05-10T07:16:09.322Z,7.97
2023-05-10T07:18:36.559Z,9.02
2023-05-10T07:21:03.967Z,8.30
2023-05-10T07:23:30.928Z,8.38
2023-05-10T07:25:58.367Z,8.55
2023-05-10T07:28:25.231Z,8.20
2023-05-10T07:30:52.330Z,8.90
2023-05-10T07:33:19.140Z,7.97
2023-05-10T07:35:45.997Z,8.45
2023-05-10T07:38:12.864Z,8.75
2023-05-10T07:40:40.935Z,7.63
2023-05-10T07:43:07.667Z,7.85
2023-05-10T07:45:35.343Z,8.05
2023-05-10T07:48:02.369Z,7.22
2023-05-10T07:50:29.422Z,7.68
2023-05-10T07:52:56.181Z,8.18
2023-05-10T07:55:23.028Z,7.05
2023-05-10T07:57:52.153Z,8.07
2023-05-10T08:00:21.212Z,7.25
2023-05-10T08:02:48.969Z,6.68
2023-05-10T08:05:16.423Z,6.45
2023-05-10T08:07:43.594Z,7.03
2023-05-10T08:10:12.379Z,7.72
2023-05-10T08:12:39.748Z,8.15
2023-05-10T08:15:08.000Z,7.10
2023-05-10T08:17:34.909Z,7.55
2023-05-10T08:20:02.092Z,7.00
2023-05-10T08:22:28.918Z,9.07
2023-05-10T08:24:55.680Z,8.10
2023-05-10T08:27:22.793Z,7.18
2023-05-10T08:29:50.701Z,7.18
2023-05-10T08:32:18.522Z,7.80
2023-05-10T08:34:45.303Z,7.40
2023-05-10T08:37:14.382Z,7.53
2023-05-10T08:39:41.623Z,8.30
2023-05-10T08:42:10.705Z,7.85
2023-05-10T08:44:38.045Z,7.80
2023-05-10T08:47:13.708Z,9.13
2023-05-10T08:49:42.533Z,8.13
2023-05-10T08:52:12.257Z,8.45
2023-05-10T08:54:39.607Z,7.97
2023-05-10T08:57:06.738Z,8.23
2023-05-10T08:59:34.108Z,8.05
2023-05-10T09:02:02.998Z,8.07
2023-05-10T09:04:31.927Z,7.80
2023-05-10T09:06:59.173Z,7.65
2023-05-10T09:09:28.482Z,9.10
2023-05-10T09:11:56.488Z,7.32
2023-05-10T09:14:25.988Z,7.55
2023-05-10T09:16:55.178Z,7.72
2023-05-10T09:19:21.991Z,7.18
2023-05-10T09:21:50.014Z,7.20
2023-05-10T09:24:16.771Z,6.88
2023-05-10T09:26:50.208Z,6.70
2023-05-10T09:29:17.883Z,5.88
2023-05-10T09:31:57.152Z,5.95
2023-05-10T09:34:35.623Z,5.63
2023-05-10T09:37:05.318Z,6.38
2023-05-10T09:39:38.316Z,5.40
2023-05-10T09:42:09.521Z,5.25
2023-05-10T09:44:36.993Z,6.13
2023-05-10T09:47:05.271Z,4.97
2023-05-10T09:49:32.123Z,5.78
2023-05-10T09:52:06.572Z,5.28
2023-05-10T09:54:34.979Z,4.80
2023-05-10T09:57:02.296Z,5.00
2023-05-10T09:59:30.474Z,4.95
2023-05-10T10:02:00.724Z,4.80
2023-05-10T10:04:29.081Z,4.30
2023-05-10T10:07:05.160Z,4.05
2023-05-10T10:09:33.785Z,4.38
2023-05-10T10:12:02.959Z,4.63
2023-05-10T10:14:30.716Z,4.10
2023-05-10T10:17:07.340Z,5.07
2023-05-10T10:19:37.082Z,4.03
2023-05-10T10:22:04.224Z,3.78
2023-05-10T10:24:31.378Z,3.00
2023-05-10T10:27:32.826Z,2.70
2023-05-10T10:30:33.021Z,2.70
2023-05-10T10:33:37.468Z,3.42
2023-05-10T10:36:05.600Z,3.20
2023-05-10T10:39:04.041Z,3.40
2023-05-10T10:41:36.680Z,3.80
2023-05-10T10:44:41.515Z,3.70
2023-05-10T10:47:19.464Z,3.03
2023-05-10T10:50:05.478Z,3.50
2023-05-10T10:52:34.303Z,3.47
2023-05-10T10:55:02.370Z,3.38
2023-05-10T10:57:33.618Z,3.40
2023-05-10T11:00:32.252Z,3.50
2023-05-10T11:03:19.600Z,3.60
2023-05-10T11:05:50.645Z,3.60
2023-05-10T11:08:20.808Z,3.25
2023-05-10T11:11:08.147Z,3.03
2023-05-10T11:13:49.198Z,3.47
2023-05-10T11:16:26.361Z,3.03
2023-05-10T11:19:12.838Z,3.35
2023-05-10T11:22:06.327Z,3.15
2023-05-10T11:24:34.743Z,3.25
2023-05-10T11:27:01.944Z,2.40
2023-05-10T11:29:28.746Z,2.63
2023-05-10T11:32:00.211Z,2.70
2023-05-10T11:34:31.295Z,2.35
2023-05-10T11:36:58.836Z,2.20
2023-05-10T11:39:31.607Z,2.55
2023-05-10T11:41:59.592Z,2.25
2023-05-10T11:44:33.715Z,2.10
2023-05-10T11:47:02.541Z,2.33
2023-05-10T11:49:30.157Z,2.20
2023-05-10T11:52:11.956Z,2.92
2023-05-10T11:54:38.933Z,2.65
2023-05-10T11:57:06.040Z,2.60
2023-05-10T11:59:32.887Z,2.47
2023-05-10T12:02:00.534Z,3.17
2023-05-10T12:04:30.793Z,2.67
2023-05-10T12:06:57.879Z,2.28
2023-05-10T12:09:39.737Z,1.98
2023-05-10T12:12:10.849Z,2.47
2023-05-10T12:14:37.771Z,2.45
2023-05-10T12:17:04.549Z,2.50
2023-05-10T12:19:39.514Z,2.30
2023-05-10T12:22:07.178Z,2.50
2023-05-10T12:24:39.130Z,2.45
2023-05-10T12:27:09.018Z,2.20
2023-05-10T12:29:36.089Z,2.85
2023-05-10T12:32:03.414Z,2.60
2023-05-10T12:34:36.915Z,2.95
2023-05-10T12:37:04.774Z,3.20
2023-05-10T12:39:49.828Z,2.88
2023-05-10T12:42:17.536Z,2.40
2023-05-10T12:44:44.747Z,2.83
2023-05-10T12:47:11.827Z,5.97
2023-05-10T12:49:38.849Z,6.93
2023-05-10T12:52:05.594Z,7.82
2023-05-10T12:54:32.402Z,7.30
2023-05-10T12:56:59.171Z,7.78
2023-05-10T12:59:26.003Z,8.45
2023-05-10T13:01:52.724Z,7.22
2023-05-10T13:04:19.411Z,7.03
2023-05-10T13:06:46.280Z,6.70
2023-05-10T13:09:12.985Z,6.18
2023-05-10T13:11:39.807Z,6.63
2023-05-10T13:14:06.609Z,6.35
2023-05-10T13:16:33.606Z,7.32
2023-05-10T13:19:00.434Z,7.30
2023-05-10T13:21:27.961Z,8.50
2023-05-10T13:23:54.836Z,7.85
2023-05-10T13:26:22.673Z,8.70
2023-05-10T13:28:50.532Z,8.73
2023-05-10T13:31:19.822Z,8.35
2023-05-10T13:33:46.629Z,8.10
2023-05-10T13:36:13.321Z,7.55
2023-05-10T13:38:40.047Z,7.22
2023-05-10T13:41:06.843Z,7.63
2023-05-10T13:43:33.608Z,8.05
2023-05-10T13:46:00.474Z,7.32
2023-05-10T13:48:28.157Z,6.88
2023-05-10T13:50:55.044Z,6.35
2023-05-10T13:53:22.030Z,6.20
2023-05-10T13:55:52.670Z,6.72
2023-05-10T13:58:19.420Z,7.13
2023-05-10T14:00:46.126Z,6.90
2023-05-10T14:03:13.071Z,5.80
2023-05-10T14:05:39.900Z,6.70
2023-05-10T14:08:06.700Z,6.95
2023-05-10T14:10:34.770Z,6.30
2023-05-10T14:13:02.099Z,5.68
2023-05-10T14:15:28.799Z,5.97
2023-05-10T14:17:55.574Z,5.38
2023-05-10T14:20:22.283Z,4.82
2023-05-10T14:22:49.028Z,5.80
2023-05-10T14:25:16.368Z,6.57
2023-05-10T14:27:43.249Z,6.05
2023-05-10T14:30:10.680Z,4.90
2023-05-10T14:32:38.100Z,5.25
2023-05-10T14:35:06.827Z,5.88
2023-05-10T14:37:33.622Z,5.35
2023-05-10T14:40:00.335Z,5.18
2023-05-10T14:42:27.003Z,4.97
2023-05-10T14:44:53.749Z,4.95
2023-05-10T14:47:20.440Z,5.25
2023-05-10T14:49:47.219Z,4.95
2023-05-10T14:52:15.212Z,5.95
2023-05-10T14:54:41.980Z,4.90
2023-05-10T14:57:08.701Z,5.65
2023-05-10T14:59:35.552Z,5.75
2023-05-10T15:02:02.774Z,5.10
2023-05-10T15:04:30.073Z,5.38
2023-05-10T15:07:00.420Z,4.82
2023-05-10T15:09:28.843Z,4.15
2023-05-10T15:11:56.653Z,4.20
2023-05-10T15:14:24.200Z,4.93
2023-05-10T15:16:50.942Z,4.55
2023-05-10T15:19:17.648Z,4.13
2023-05-10T15:21:45.785Z,4.90
2023-05-10T15:24:12.556Z,4.32
2023-05-10T15:26:39.387Z,3.67
2023-05-10T15:29:06.086Z,3.95
2023-05-10T15:31:35.729Z,4.80
2023-05-10T15:34:02.607Z,3.00
2023-05-10T15:36:29.345Z,2.85
2023-05-10T15:38:56.751Z,3.58
2023-05-10T15:41:24.419Z,3.35
2023-05-10T15:43:51.357Z,3.17
2023-05-10T15:46:18.131Z,3.30
2023-05-10T15:48:46.951Z,2.85
2023-05-10T15:51:13.746Z,3.00
2023-05-10T15:53:49.481Z,2.90
2023-05-10T15:56:19.841Z,3.22
2023-05-10T15:58:46.749Z,4.18
2023-05-10T16:01:13.556Z,3.63
2023-05-10T16:03:40.507Z,4.18
2023-05-10T16:06:07.389Z,4.18
2023-05-10T16:08:34.212Z,5.30
2023-05-10T16:11:01.334Z,4.30
2023-05-10T16:13:29.508Z,5.00
2023-05-10T16:15:58.033Z,4.97
2023-05-10T16:18:24.947Z,5.07
2023-05-10T16:20:53.767Z,4.93
2023-05-10T16:23:20.877Z,4.68
2023-05-10T16:25:47.722Z,4.97
2023-05-10T16:28:14.622Z,4.70
2023-05-10T16:30:41.368Z,5.13
2023-05-10T16:33:08.322Z,4.70
2023-05-10T16:35:39.042Z,4.55
2023-05-10T16:38:08.029Z,5.22
2023-05-10T16:40:34.790Z,5.63
2023-05-10T16:43:01.928Z,5.63
2023-05-10T16:45:32.921Z,5.60
2023-05-10T16:47:59.714Z,6.00
2023-05-10T16:50:26.504Z,5.82
2023-05-10T16:52:54.854Z,5.55
2023-05-10T16:55:22.945Z,6.45
2023-05-10T16:57:52.061Z,5.53
2023-05-10T17:00:20.772Z,5.93
2023-05-10T17:02:47.639Z,6.10
2023-05-10T17:05:14.557Z,5.80
2023-05-10T17:07:41.440Z,5.65
2023-05-10T17:10:08.835Z,6.13
2023-05-10T17:12:35.724Z,5.53
2023-05-10T17:15:02.538Z,5.55
2023-05-10T17:17:29.330Z,5.78
2023-05-10T17:19:56.239Z,5.20
2023-05-10T17:22:23.012Z,5.53
2023-05-10T17:24:50.026Z,5.22
2023-05-10T17:27:16.801Z,5.15
2023-05-10T17:29:43.694Z,5.65
2023-05-10T17:32:10.517Z,6.22
2023-05-10T17:34:38.613Z,5.03
2023-05-10T17:37:05.402Z,5.95
2023-05-10T17:39:32.138Z,6.05
2023-05-10T17:41:58.852Z,7.07
2023-05-10T17:44:25.945Z,5.22
2023-05-10T17:46:52.719Z,5.53
2023-05-10T17:49:28.780Z,5.50
2023-05-10T17:51:55.700Z,5.22
2023-05-10T17:54:22.431Z,6.00
2023-05-10T17:56:49.143Z,6.15
2023-05-10T17:59:15.997Z,6.43
2023-05-10T18:01:42.752Z,6.55
2023-05-10T18:04:11.946Z,5.93
2023-05-10T18:06:39.077Z,5.50
2023-05-10T18:09:07.208Z,5.70
2023-05-10T18:11:36.426Z,5.18
2023-05-10T18:14:06.861Z,5.85
2023-05-10T18:16:33.637Z,4.90
2023-05-10T18:19:00.520Z,6.00
2023-05-10T18:21:27.352Z,5.63
2023-05-10T18:23:57.029Z,5.70
2023-05-10T18:26:23.849Z,5.50
2023-05-10T18:28:50.616Z,6.43
2023-05-10T18:31:17.488Z,5.65
2023-05-10T18:33:45.381Z,5.95
2023-05-10T18:40:19.111Z,5.50
2023-05-10T18:42:46.747Z,5.85
2023-05-10T18:45:15.149Z,5.63
2023-05-10T18:47:49.311Z,7.88
2023-05-10T18:50:19.504Z,7.43
2023-05-10T18:52:47.094Z,7.07
2023-05-10T18:55:14.241Z,7.45
2023-05-10T18:57:41.875Z,6.35
2023-05-10T19:00:12.228Z,6.70
2023-05-10T19:02:41.514Z,6.72
2023-05-10T19:05:09.806Z,6.97
2023-05-10T19:07:36.767Z,7.75
2023-05-10T19:10:03.996Z,7.63
2023-05-10T19:12:31.186Z,5.90
2023-05-10T19:15:00.732Z,7.25
2023-05-10T19:17:28.510Z,6.88
2023-05-10T19:19:57.514Z,7.28
2023-05-10T19:22:36.167Z,6.72
2023-05-10T19:25:13.015Z,6.57
2023-05-10T19:27:39.938Z,6.75
2023-05-10T19:30:08.007Z,6.75
2023-05-10T19:32:34.952Z,7.30
2023-05-10T19:35:01.713Z,7.43
2023-05-10T19:37:28.509Z,7.63
2023-05-10T19:39:55.312Z,7.60
2023-05-10T19:42:22.091Z,7.78
2023-05-10T19:44:49.087Z,7.70
2023-05-10T19:47:15.894Z,7.32
2023-05-10T19:49:42.765Z,6.90
2023-05-10T19:52:11.513Z,7.00
2023-05-10T19:54:38.270Z,7.55
2023-05-10T19:57:05.101Z,7.18
2023-05-10T19:59:31.980Z,7.72
2023-05-10T20:01:58.743Z,6.90
2023-05-10T20:04:25.902Z,7.78
2023-05-10T20:06:52.568Z,8.70
2023-05-10T20:09:19.317Z,7.70
2023-05-10T20:11:46.051Z,7.55
2023-05-10T20:14:12.758Z,7.53
2023-05-10T20:16:39.653Z,7.90
2023-05-10T20:19:06.521Z,7.97
2023-05-10T20:21:33.457Z,8.20
2023-05-10T20:24:00.275Z,7.72
2023-05-10T20:26:27.142Z,8.65
2023-05-10T20:28:53.875Z,7.10
2023-05-10T20:31:20.689Z,7.60
2023-05-10T20:33:47.472Z,8.57
2023-05-10T20:36:14.887Z,8.05
2023-05-10T20:38:41.614Z,8.52
2023-05-10T20:41:08.370Z,8.20
2023-05-10T20:43:35.162Z,7.93
2023-05-10T20:46:05.309Z,8.13
2023-05-10T20:48:36.190Z,8.98
2023-05-10T20:51:03.250Z,7.97
2023-05-10T20:53:30.137Z,8.48
2023-05-10T20:55:56.893Z,7.22
2023-05-10T20:58:23.702Z,9.02
2023-05-10T21:00:50.628Z,8.95
2023-05-10T21:03:17.344Z,7.05
2023-05-10T21:05:44.104Z,8.30
2023-05-10T21:08:10.808Z,9.00
2023-05-10T21:10:37.594Z,8.85
2023-05-10T21:13:05.340Z,8.90
2023-05-10T21:15:32.117Z,9.52
2023-05-10T21:17:59.763Z,9.65
2023-05-10T21:20:26.797Z,9.77
2023-05-10T21:22:53.608Z,8.55
2023-05-10T21:25:20.359Z,9.23
2023-05-10T21:27:47.215Z,8.50
2023-05-10T21:30:14.385Z,8.57
2023-05-10T21:32:41.402Z,7.78
2023-05-10T21:35:09.930Z,8.82
2023-05-10T21:37:36.669Z,9.05
2023-05-10T21:40:04.684Z,8.02
2023-05-10T21:42:31.933Z,10.13
2023-05-10T21:45:01.766Z,10.07
2023-05-10T21:47:28.531Z,10.02
2023-05-10T21:49:55.317Z,8.82
2023-05-10T21:52:22.095Z,9.30
2023-05-10T21:54:48.877Z,8.70
2023-05-10T21:57:15.603Z,8.55
2023-05-10T21:59:42.539Z,9.13
2023-05-10T22:02:09.318Z,8.63
2023-05-10T22:04:36.067Z,9.35
2023-05-10T22:07:02.853Z,8.93
2023-05-10T22:09:29.632Z,9.68
2023-05-10T22:11:56.460Z,8.55
2023-05-10T22:14:23.207Z,9.70
2023-05-10T22:16:52.587Z,8.45
2023-05-10T22:19:19.441Z,9.18
2023-05-10T22:21:46.270Z,9.88
2023-05-10T22:24:13.106Z,9.50
2023-05-10T22:26:39.963Z,9.98
2023-05-10T22:29:06.840Z,9.55
2023-05-10T22:31:33.687Z,10.10
2023-05-10T22:34:00.514Z,9.85
2023-05-10T22:36:27.384Z,10.80
2023-05-10T22:38:54.115Z,10.23
2023-05-10T22:41:22.806Z,10.13
2023-05-10T22:43:50.241Z,10.05
2023-05-10T22:46:16.950Z,9.45
2023-05-10T22:48:43.753Z,9.65
2023-05-10T22:51:10.591Z,8.98
2023-05-10T22:53:37.459Z,9.43
2023-05-10T22:56:04.408Z,9.60
2023-05-10T22:58:32.081Z,10.18
2023-05-10T23:00:59.156Z,9.13
2023-05-10T23:03:26.197Z,9.93
2023-05-10T23:05:53.033Z,9.70
2023-05-10T23:08:19.749Z,10.85
2023-05-10T23:10:46.514Z,9.07
2023-05-10T23:13:14.063Z,9.57
2023-05-10T23:15:40.798Z,9.93
2023-05-10T23:18:08.269Z,9.95
2023-05-10T23:20:35.157Z,9.30
2023-05-10T23:23:02.048Z,10.13
2023-05-10T23:25:28.747Z,9.40
2023-05-10T23:27:55.486Z,10.75
2023-05-10T23:30:22.170Z,10.20
2023-05-10T23:32:48.972Z,10.48
2023-05-10T23:35:15.970Z,10.20
2023-05-10T23:37:43.027Z,11.15
2023-05-10T23:40:10.360Z,10.32
2023-05-10T23:42:38.410Z,11.35
2023-05-10T23:45:08.860Z,10.20
2023-05-10T23:47:36.880Z,10.63
2023-05-10T23:50:05.243Z,10.75
2023-05-10T23:52:32.067Z,10.65
2023-05-10T23:54:58.755Z,11.02
2023-05-10T23:57:25.633Z,10.13
2023-05-10T23:59:52.435Z,11.88
